Time;durP1;ratioP1;P1;durP2;ratioP2;P2;SDS_P1;SDS_P2;PMS_P1;PMS_P2;Temp;Humidity;BMP_temperature;BMP_pressure;BME280_temperature;BME280_humidity;BME280_pressure;Samples;Min_cycle;Max_cycle;Signal;HPM_P1;HPM_P2
2021/11/08 00:01:40;;;;;;;;;20.33;15.00;;;;;9.06;67.23;101987.47;4966848;28;45592;-71
2021/11/08 00:04:06;;;;;;;;;24.67;16.00;;;;;9.01;67.49;101984.22;4968214;28;45515;-69
2021/11/08 00:06:31;;;;;;;;;17.33;14.33;;;;;8.95;67.17;101984.50;4957474;28;46701;-70
2021/11/08 00:08:57;;;;;;;;;21.67;14.00;;;;;8.96;67.65;101983.59;4970623;28;47763;-70
2021/11/08 00:11:25;;;;;;;;;18.33;13.00;;;;;8.97;67.54;101966.13;4970570;28;45198;-71
2021/11/08 00:13:51;;;;;;;;;18.00;17.00;;;;;8.92;67.72;101963.72;4970525;28;45301;-72
2021/11/08 00:21:21;;;;;;;;;21.00;15.67;;;;;8.83;67.95;101974.63;4979997;28;45423;-72
2021/11/08 00:23:46;;;;;;;;;16.33;16.00;;;;;8.81;68.49;101981.69;4991998;28;45563;-71
2021/11/08 00:26:12;;;;;;;;;22.50;15.00;;;;;8.77;67.85;101981.00;4972445;28;45394;-72
2021/11/08 00:28:37;;;;;;;;;20.25;17.00;;;;;8.73;67.94;101975.06;4972765;28;45490;-66
2021/11/08 00:31:03;;;;;;;;;23.00;21.00;;;;;8.73;68.26;101979.44;4974763;28;45826;-70
2021/11/08 00:33:28;;;;;;;;;30.75;25.00;;;;;8.69;68.38;101968.28;4974437;28;45454;-67
2021/11/08 00:36:00;;;;;;;;;23.50;18.75;;;;;8.72;68.39;101962.03;4958339;28;47210;-66
2021/11/08 00:38:27;;;;;;;;;26.25;22.00;;;;;8.74;68.27;101982.00;4969939;28;45321;-69
2021/11/08 00:40:54;;;;;;;;;29.00;21.00;;;;;8.72;68.62;101977.75;4960638;28;45351;-66
2021/11/08 00:43:22;;;;;;;;;31.75;25.75;;;;;8.72;68.69;101985.63;4962721;28;45458;-66
2021/11/08 00:45:48;;;;;;;;;27.00;21.25;;;;;8.67;68.29;101983.19;4965119;28;46368;-66
2021/11/08 00:48:16;;;;;;;;;33.25;25.75;;;;;8.65;68.69;101987.63;4969174;28;45389;-67
2021/11/08 00:50:42;;;;;;;;;32.25;20.25;;;;;8.64;68.32;101979.84;4956274;28;45550;-69
2021/11/08 00:53:07;;;;;;;;;27.25;23.50;;;;;8.63;68.50;101984.25;4973431;28;45559;-70
2021/11/08 00:55:34;;;;;;;;;35.00;27.50;;;;;8.61;68.32;101980.00;4964076;28;46128;-71
2021/11/08 00:58:01;;;;;;;;;34.50;29.50;;;;;8.54;68.57;101979.44;4966716;28;45528;-70
2021/11/08 01:00:30;;;;;;;;;35.25;26.75;;;;;8.47;68.71;101978.00;4962195;28;45642;-70
2021/11/08 01:03:00;;;;;;;;;37.75;30.50;;;;;8.45;68.85;101974.59;4971957;28;45581;-69
2021/11/08 01:05:25;;;;;;;;;35.00;31.50;;;;;8.38;68.50;101980.09;4977374;28;46343;-68
2021/11/08 01:07:51;;;;;;;;;39.00;34.50;;;;;8.32;69.00;101984.78;4973561;28;45332;-69
2021/11/08 01:10:18;;;;;;;;;38.25;29.25;;;;;8.22;68.80;101984.31;4973530;28;45483;-67
2021/11/08 01:12:44;;;;;;;;;36.50;30.75;;;;;8.15;69.42;101986.38;4971271;28;45626;-66
2021/11/08 01:15:10;;;;;;;;;32.00;26.25;;;;;8.12;69.19;101988.25;4973188;28;45520;-67
2021/11/08 01:17:37;;;;;;;;;37.00;31.00;;;;;8.06;69.81;101987.59;4970830;28;45322;-67
2021/11/08 01:20:05;;;;;;;;;24.75;23.75;;;;;8.05;69.48;101988.50;4959768;28;45435;-67
2021/11/08 01:22:31;;;;;;;;;35.75;30.00;;;;;8.02;69.86;101978.19;4971895;28;45380;-66
2021/11/08 01:24:56;;;;;;;;;42.25;29.00;;;;;7.97;69.66;101977.53;4971647;28;46281;-66
2021/11/08 01:27:34;;;;;;;;;31.50;26.75;;;;;7.92;69.46;101976.88;4966094;28;45554;-66
2021/11/08 01:30:01;;;;;;;;;35.25;28.00;;;;;7.89;69.71;101972.63;4973572;28;45440;-67
2021/11/08 01:32:27;;;;;;;;;26.00;25.00;;;;;7.87;69.98;101968.38;4957604;28;45431;-67
2021/11/08 01:34:52;;;;;;;;;30.25;26.00;;;;;7.85;69.99;101976.31;5006910;28;46251;-66
2021/11/08 01:37:20;;;;;;;;;29.50;26.00;;;;;7.85;70.55;101975.44;5004248;28;45371;-65
2021/11/08 01:39:46;;;;;;;;;53.25;34.00;;;;;7.84;70.83;101973.75;4998350;28;45411;-68
2021/11/08 01:42:15;;;;;;;;;33.75;26.00;;;;;7.84;70.71;101963.28;4961374;28;45586;-67
2021/11/08 01:44:41;;;;;;;;;36.25;26.75;;;;;7.84;70.66;101964.13;4972586;28;45321;-66
2021/11/08 01:47:08;;;;;;;;;39.25;30.25;;;;;7.83;70.48;101966.81;5032296;28;45413;-67
2021/11/08 01:49:35;;;;;;;;;28.00;25.50;;;;;7.84;70.35;101968.53;4967131;28;45476;-67
2021/11/08 01:52:01;;;;;;;;;33.75;29.25;;;;;7.82;70.55;101967.72;4967357;28;45605;-67
2021/11/08 01:54:27;;;;;;;;;30.75;21.25;;;;;7.80;70.85;101969.56;4966046;28;45642;-66
2021/11/08 01:56:54;;;;;;;;;37.75;27.00;;;;;7.75;70.92;101968.00;4972055;28;45465;-67
2021/11/08 01:59:23;;;;;;;;;35.25;30.50;;;;;7.73;71.05;101966.34;4957584;28;45475;-68
2021/11/08 02:01:50;;;;;;;;;45.25;33.75;;;;;7.69;70.34;101960.41;4974677;28;45642;-67
2021/11/08 02:04:16;;;;;;;;;21.00;16.75;;;;;7.66;70.51;101955.31;4982851;28;48413;-66
2021/11/08 02:06:41;;;;;;;;;35.50;27.75;;;;;7.62;71.04;101963.34;4968762;28;45507;-67
2021/11/08 02:09:07;;;;;;;;;31.50;26.25;;;;;7.60;70.86;101963.41;4960396;28;45523;-67
2021/11/08 02:11:35;;;;;;;;;28.25;25.75;;;;;7.57;71.34;101958.31;4956424;28;45353;-66
2021/11/08 02:14:02;;;;;;;;;36.25;25.75;;;;;7.54;70.67;101955.84;4959206;28;45497;-67
2021/11/08 02:16:28;;;;;;;;;31.75;27.50;;;;;7.49;71.62;101958.63;5007854;28;45479;-67
2021/11/08 02:18:53;;;;;;;;;32.75;28.75;;;;;7.46;70.64;101953.53;5015130;28;45297;-66
2021/11/08 02:21:19;;;;;;;;;13.25;8.25;;;;;7.49;71.12;101958.63;4982563;28;45436;-66
2021/11/08 02:23:48;;;;;;;;;33.50;25.25;;;;;7.47;71.25;101949.16;4962896;28;46245;-68
2021/11/08 02:26:17;;;;;;;;;32.25;28.25;;;;;7.48;71.75;101951.69;4976880;28;45493;-66
2021/11/08 02:28:45;;;;;;;;;36.00;26.75;;;;;7.47;71.61;101949.16;4969219;28;45512;-66
2021/11/08 02:31:18;;;;;;;;;29.75;27.25;;;;;7.46;71.14;101950.06;4974200;28;45466;-66
2021/11/08 02:33:48;;;;;;;;;35.50;27.75;;;;;7.45;71.85;101946.59;4985736;28;46454;-68
2021/11/08 02:36:14;;;;;;;;;36.75;31.50;;;;;7.44;71.67;101950.97;5019286;28;45460;-67
2021/11/08 02:38:45;;;;;;;;;32.25;26.00;;;;;7.43;71.55;101949.28;4956574;28;45496;-67
2021/11/08 02:41:10;;;;;;;;;40.00;28.75;;;;;7.42;71.64;101957.16;4969347;28;45361;-67
2021/11/08 02:43:36;;;;;;;;;37.00;29.75;;;;;7.38;71.47;101961.69;4963146;28;45545;-67
2021/11/08 02:46:20;;;;;;;;;33.50;27.00;;;;;7.35;71.61;101950.50;4965603;28;45510;-67
2021/11/08 02:48:49;;;;;;;;;33.75;27.50;;;;;7.31;71.62;101955.00;4961414;28;45490;-68
2021/11/08 02:51:19;;;;;;;;;36.25;29.00;;;;;7.29;71.68;101951.63;4956404;28;45881;-69
2021/11/08 02:53:48;;;;;;;;;37.00;30.00;;;;;7.21;71.75;101944.09;4956371;28;46197;-68
2021/11/08 02:56:14;;;;;;;;;33.25;27.25;;;;;7.21;71.80;101957.16;5032850;28;45417;-66
2021/11/08 02:58:42;;;;;;;;;36.25;28.75;;;;;7.20;71.52;101957.19;5015935;28;45485;-66
2021/11/08 03:01:10;;;;;;;;;28.50;23.50;;;;;7.21;72.13;101962.38;5014089;28;45502;-67
2021/11/08 03:03:39;;;;;;;;;38.00;30.25;;;;;7.20;72.47;101963.28;4999195;28;46056;-67
2021/11/08 03:06:29;;;;;;;;;30.50;24.50;;;;;7.19;72.06;101953.75;4956736;28;45309;-67
2021/11/08 03:08:58;;;;;;;;;31.50;31.00;;;;;7.18;71.37;101954.66;4958469;28;45286;-67
2021/11/08 03:11:24;;;;;;;;;41.50;32.75;;;;;7.15;71.91;101940.84;4956620;28;45379;-65
2021/11/08 03:14:07;;;;;;;;;32.00;28.00;;;;;7.16;72.09;101951.25;4960009;28;46136;-67
2021/11/08 03:19:03;;;;;;;;;32.00;28.50;;;;;7.13;72.24;101953.97;4989483;28;45533;-66
2021/11/08 03:21:31;;;;;;;;;29.75;29.00;;;;;7.15;71.57;101952.16;4970146;28;45531;-66
2021/11/08 03:24:00;;;;;;;;;34.00;32.25;;;;;7.15;71.50;101964.38;4962065;28;47663;-66
2021/11/08 03:27:04;;;;;;;;;40.00;32.50;;;;;7.13;72.37;101958.38;4970452;28;45570;-66
2021/11/08 03:29:19;;;;;;;;;34.75;31.00;;;;;7.13;72.33;101955.75;4956904;28;45457;-65
2021/11/08 03:31:49;;;;;;;;;43.00;33.00;;;;;7.15;71.66;101965.25;4973310;28;45451;-65
2021/11/08 03:34:15;;;;;;;;;40.00;32.25;;;;;7.15;72.39;101961.75;4967528;28;46073;-67
2021/11/08 03:36:40;;;;;;;;;33.50;29.00;;;;;7.14;72.17;101978.38;4981623;28;45440;-65
2021/11/08 03:39:06;;;;;;;;;37.50;34.00;;;;;7.12;72.36;101959.28;5023465;28;45590;-66
2021/11/08 03:41:32;;;;;;;;;39.00;31.00;;;;;7.10;71.49;101962.78;4955973;28;45404;-66
2021/11/08 03:43:58;;;;;;;;;42.25;30.75;;;;;7.07;72.05;101968.16;4959625;28;47124;-66
2021/11/08 03:46:24;;;;;;;;;39.50;33.50;;;;;7.04;71.77;101956.97;4960584;28;45477;-66
2021/11/08 03:48:50;;;;;;;;;44.00;32.75;;;;;7.03;72.17;101969.19;4960154;28;45514;-67
2021/11/08 03:51:15;;;;;;;;;43.75;33.25;;;;;7.04;72.04;101965.63;4956264;28;50563;-67
2021/11/08 03:53:40;;;;;;;;;45.00;31.50;;;;;7.04;72.63;101963.03;4956323;28;46782;-67
2021/11/08 03:56:07;;;;;;;;;38.75;31.25;;;;;7.03;71.89;101958.75;4958166;28;45285;-65
2021/11/08 03:58:33;;;;;;;;;38.00;31.00;;;;;7.04;71.77;101965.63;4985928;28;50102;-67
2021/11/08 04:00:59;;;;;;;;;42.75;36.75;;;;;6.99;71.77;101957.13;4965400;28;45427;-66
2021/11/08 04:03:25;;;;;;;;;36.50;27.75;;;;;7.02;71.99;101951.81;4960269;28;45530;-66
2021/11/08 04:05:51;;;;;;;;;37.00;29.25;;;;;7.00;72.37;101951.00;4957766;28;45360;-67
2021/11/08 04:08:20;;;;;;;;;36.50;30.00;;;;;7.00;71.55;101947.56;4972479;28;45356;-67
2021/11/08 04:10:52;;;;;;;;;40.25;31.00;;;;;6.96;71.98;101957.25;5018794;28;45547;-67
2021/11/08 04:13:19;;;;;;;;;34.00;28.75;;;;;6.91;72.02;101953.97;5013123;28;47193;-66
2021/11/08 04:15:47;;;;;;;;;40.25;33.00;;;;;6.87;72.51;101952.41;4996763;28;45511;-67
2021/11/08 04:18:19;;;;;;;;;33.25;26.25;;;;;6.86;72.68;101948.09;4956228;28;49187;-66
2021/11/08 04:20:48;;;;;;;;;39.25;30.25;;;;;6.88;72.96;101954.94;4955565;28;46112;-68
2021/11/08 04:23:16;;;;;;;;;31.25;26.75;;;;;6.85;72.32;101946.38;5034451;28;46373;-65
2021/11/08 04:25:42;;;;;;;;;42.25;31.25;;;;;6.87;72.83;101955.03;4974587;28;45488;-68
2021/11/08 04:28:08;;;;;;;;;30.75;28.50;;;;;6.85;72.18;101959.44;4966168;28;45297;-67
2021/11/08 04:30:37;;;;;;;;;32.50;26.25;;;;;6.85;73.29;101964.66;4968010;28;45430;-67
2021/11/08 04:33:15;;;;;;;;;39.25;30.00;;;;;6.84;72.75;101960.38;4955271;28;46225;-66
2021/11/08 04:38:50;;;;;;;;;32.75;26.00;;;;;6.81;72.87;101963.09;4970431;28;45571;-67
2021/11/08 04:41:44;;;;;;;;;42.00;32.00;;;;;6.84;72.45;101970.81;4970371;28;45612;-66
2021/11/08 05:31:38;;;;;;;;;47.00;36.25;;;;;6.87;72.73;101974.16;4934449;28;45424;-67
2021/11/08 05:34:03;;;;;;;;;38.25;32.25;;;;;6.82;72.60;101978.69;4929965;28;45471;-67
2021/11/08 05:36:29;;;;;;;;;31.00;30.75;;;;;6.85;72.75;101980.34;4937371;28;45483;-67
2021/11/08 05:38:54;;;;;;;;;45.25;36.50;;;;;6.85;72.85;101985.56;4945826;28;45436;-74
2021/11/08 05:41:20;;;;;;;;;44.25;31.25;;;;;6.93;73.42;101973.91;4957417;28;45366;-74
2021/11/08 05:43:45;;;;;;;;;40.75;32.00;;;;;7.02;72.71;101984.91;4972895;28;45403;-74
2021/11/08 05:46:11;;;;;;;;;50.00;37.00;;;;;7.12;72.54;101985.41;4974521;28;48259;-74
2021/11/08 05:48:37;;;;;;;;;43.00;32.25;;;;;7.21;72.50;101977.19;4970011;28;45483;-74
2021/11/08 05:51:03;;;;;;;;;40.25;34.25;;;;;7.29;72.32;101988.22;4959802;28;45721;-74
2021/11/08 05:53:28;;;;;;;;;40.75;33.25;;;;;7.37;72.24;101993.97;4971782;28;45426;-74
2021/11/08 05:56:50;;;;;;;;;35.25;30.25;;;;;7.47;71.69;101996.22;5025248;28;46104;-72
2021/11/08 06:50:29;;;;;;;;;32.25;29.00;;;;;8.01;70.15;102041.91;4893643;28;45847;-72
2021/11/08 06:53:01;;;;;;;;;33.75;29.25;;;;;7.99;70.14;102040.28;4953738;28;45447;-72
2021/11/08 06:55:27;;;;;;;;;39.50;31.50;;;;;7.99;70.54;102041.13;4903483;28;45444;-75
2021/11/08 06:58:00;;;;;;;;;37.50;32.25;;;;;7.99;70.93;102041.13;4901241;28;45457;-72
2021/11/08 07:00:26;;;;;;;;;40.25;32.75;;;;;8.03;70.50;102047.94;4897622;28;46426;-74
2021/11/08 07:02:51;;;;;;;;;33.00;31.00;;;;;8.04;70.15;102049.66;4958926;28;45595;-74
2021/11/08 07:05:17;;;;;;;;;33.75;29.75;;;;;8.07;70.17;102051.28;4913067;28;45341;-73
2021/11/08 07:07:42;;;;;;;;;40.00;33.25;;;;;8.08;70.27;102053.84;4911534;28;45569;-74
2021/11/08 07:10:08;;;;;;;;;30.75;25.00;;;;;8.11;69.78;102055.47;4910883;28;45982;-74
2021/11/08 07:12:34;;;;;;;;;29.50;27.50;;;;;8.12;70.14;102064.16;4910662;28;45447;-74
2021/11/08 07:14:59;;;;;;;;;38.25;33.25;;;;;8.12;70.09;102056.31;4921550;28;45459;-73
2021/11/08 07:17:25;;;;;;;;;42.25;34.00;;;;;8.11;69.50;102063.31;4913866;28;45615;-76
2021/11/08 07:19:50;;;;;;;;;43.75;31.00;;;;;8.13;69.83;102063.25;4934771;28;46018;-75
2021/11/08 07:22:15;;;;;;;;;37.50;31.50;;;;;8.11;69.81;102063.31;4946270;28;45382;-75
2021/11/08 07:24:41;;;;;;;;;39.25;31.50;;;;;8.15;69.90;102064.00;4958785;28;45512;-74
2021/11/08 07:27:08;;;;;;;;;35.50;30.25;;;;;8.15;69.61;102061.41;4969027;28;45421;-75
2021/11/08 07:29:37;;;;;;;;;42.25;34.50;;;;;8.16;69.98;102068.34;5048579;28;45531;-75
2021/11/08 07:32:03;;;;;;;;;33.00;25.25;;;;;8.18;70.03;102069.13;5039541;28;45481;-75
2021/11/08 07:34:28;;;;;;;;;31.50;28.75;;;;;8.18;69.51;102067.34;5019572;28;45251;-75
2021/11/08 07:36:54;;;;;;;;;50.00;33.75;;;;;8.21;69.50;102074.22;4992955;28;45272;-73
2021/11/08 07:39:20;;;;;;;;;46.25;36.00;;;;;8.21;69.50;102071.63;4960502;28;46096;-77
2021/11/08 07:41:46;;;;;;;;;30.25;28.00;;;;;8.23;69.97;102078.47;4970470;28;45545;-76
2021/11/08 07:44:12;;;;;;;;;51.00;38.25;;;;;8.26;69.76;102082.75;4954558;28;45306;-75
2021/11/08 07:46:37;;;;;;;;;38.50;33.00;;;;;8.29;70.03;102084.38;5012814;28;45687;-75
2021/11/08 07:49:04;;;;;;;;;38.25;30.25;;;;;8.31;69.87;102077.31;4986719;28;47017;-76
2021/11/08 07:51:29;;;;;;;;;39.25;30.25;;;;;8.34;70.18;102083.28;4965676;28;45441;-75
2021/11/08 07:53:55;;;;;;;;;36.25;32.00;;;;;8.35;69.85;102084.13;4955290;28;45353;-74
2021/11/08 07:56:21;;;;;;;;;41.75;34.25;;;;;8.39;69.40;102076.06;4973407;28;45378;-74
2021/11/08 07:58:48;;;;;;;;;39.00;35.50;;;;;8.43;69.70;102076.78;5020125;28;45478;-75
2021/11/08 08:01:13;;;;;;;;;43.25;36.00;;;;;8.50;70.16;102082.66;4974378;28;45489;-75
2021/11/08 08:03:39;;;;;;;;;28.75;23.50;;;;;8.53;69.75;102085.97;4960686;28;45366;-75
2021/11/08 08:06:06;;;;;;;;;19.00;8.50;;;;;8.59;69.66;102097.97;4956585;28;45510;-76
2021/11/08 08:08:32;;;;;;;;;45.00;36.00;;;;;8.64;69.85;102098.59;5036210;28;46363;-76
2021/11/08 08:10:58;;;;;;;;;35.75;33.00;;;;;8.68;69.93;102097.53;5025852;28;45486;-77
2021/11/08 08:13:27;;;;;;;;;53.00;38.75;;;;;8.79;69.76;102098.84;4975648;28;45440;-76
2021/11/08 08:15:58;;;;;;;;;44.00;36.25;;;;;8.87;69.61;102096.72;4970903;28;45398;-77
2021/11/08 08:18:24;;;;;;;;;48.75;38.25;;;;;8.96;69.63;102101.53;4970473;28;47021;-75
2021/11/08 08:20:49;;;;;;;;;44.25;35.00;;;;;9.06;69.42;102102.81;5033487;28;45291;-76
2021/11/08 08:23:15;;;;;;;;;42.50;36.50;;;;;9.15;69.37;102100.72;4956909;28;45320;-75
2021/11/08 08:25:40;;;;;;;;;47.75;36.75;;;;;9.23;69.06;102096.78;4970750;28;45260;-76
2021/11/08 08:28:06;;;;;;;;;45.25;36.75;;;;;9.31;69.22;102100.84;4965747;27;45380;-76
2021/11/08 08:30:31;;;;;;;;;36.50;29.50;;;;;9.33;68.83;102099.84;4965569;28;45439;-76
2021/11/08 08:32:56;;;;;;;;;49.25;38.00;;;;;9.38;68.69;102104.84;5003463;28;45431;-76
2021/11/08 08:35:22;;;;;;;;;44.50;35.25;;;;;9.45;68.84;102108.91;4973160;28;45395;-76
2021/11/08 08:37:48;;;;;;;;;41.00;31.50;;;;;9.53;68.78;102112.00;4959647;28;46128;-75
2021/11/08 08:40:15;;;;;;;;;41.50;34.50;;;;;9.59;69.28;102105.63;4963002;28;45831;-75
2021/11/08 08:42:41;;;;;;;;;44.75;38.75;;;;;9.69;68.55;102108.63;4963781;28;45404;-75
2021/11/08 08:45:12;;;;;;;;;38.25;35.75;;;;;9.77;68.42;102113.53;4959505;28;45413;-76
2021/11/08 08:47:37;;;;;;;;;44.50;37.75;;;;;9.83;68.43;102113.22;5040262;28;45356;-75
2021/11/08 08:50:05;;;;;;;;;24.75;18.75;;;;;9.92;68.46;102107.53;4964192;28;45333;-75
2021/11/08 08:52:31;;;;;;;;;40.00;34.75;;;;;10.00;68.36;102115.88;4963963;28;45501;-75
2021/11/08 08:54:56;;;;;;;;;39.50;31.00;;;;;10.08;68.30;102121.59;4962927;28;45406;-74
2021/11/08 08:57:22;;;;;;;;;38.75;33.25;;;;;10.20;67.77;102111.41;4960753;28;46976;-74
2021/11/08 08:59:49;;;;;;;;;35.50;29.50;;;;;10.31;67.79;102119.56;5038177;28;45257;-76
2021/11/08 09:02:14;;;;;;;;;43.25;33.75;;;;;10.43;68.19;102112.03;4962982;28;45443;-74
2021/11/08 09:04:40;;;;;;;;;33.50;32.25;;;;;10.52;67.39;102116.81;4962590;28;45242;-75
2021/11/08 09:07:07;;;;;;;;;35.75;34.50;;;;;10.62;67.56;102119.81;4993132;28;45357;-75
2021/11/08 09:09:36;;;;;;;;;40.00;33.75;;;;;10.71;67.10;102121.97;5003644;28;45454;-74
2021/11/08 09:12:02;;;;;;;;;43.25;34.00;;;;;10.80;67.30;102115.38;4960643;28;45498;-72
2021/11/08 09:14:32;;;;;;;;;39.25;31.75;;;;;10.87;67.13;102109.72;4989666;28;45375;-74
2021/11/08 09:16:58;;;;;;;;;36.50;28.00;;;;;10.96;66.63;102116.25;4973771;28;47273;-76
2021/11/08 09:19:25;;;;;;;;;31.00;28.00;;;;;11.00;66.65;102117.78;4978346;28;45508;-76
2021/11/08 09:21:50;;;;;;;;;31.75;28.25;;;;;11.02;66.72;102110.66;4987957;28;45815;-75
2021/11/08 09:24:16;;;;;;;;;40.75;30.75;;;;;11.09;66.32;102120.84;5019248;28;45446;-76
2021/11/08 09:26:42;;;;;;;;;36.00;30.50;;;;;11.12;66.56;102115.41;4973060;28;47710;-76
2021/11/08 09:29:07;;;;;;;;;35.00;30.75;;;;;11.14;66.09;102116.19;4960527;28;45424;-75
2021/11/08 09:31:33;;;;;;;;;38.50;28.75;;;;;11.15;66.19;102104.75;5020321;28;45389;-75
2021/11/08 09:34:08;;;;;;;;;42.25;32.75;;;;;11.21;65.64;102109.66;4968586;28;45491;-73
2021/11/08 09:36:35;;;;;;;;;33.00;29.33;;;;;11.20;65.26;102105.34;4963273;28;46480;-75
2021/11/08 09:39:03;;;;;;;;;35.00;30.00;;;;;11.22;65.16;102111.34;4960260;28;45584;-74
2021/11/08 09:41:31;;;;;;;;;33.75;29.25;;;;;11.29;65.33;102117.16;4973488;28;45575;-72
2021/11/08 09:44:01;;;;;;;;;31.50;23.50;;;;;11.32;65.59;102116.97;4973406;28;45259;-74
2021/11/08 09:46:27;;;;;;;;;32.67;25.00;;;;;11.36;64.82;102124.63;5007204;28;46554;-75
2021/11/08 09:48:53;;;;;;;;;31.33;30.67;;;;;11.44;64.84;102118.06;4996350;28;45482;-76
2021/11/08 09:51:19;;;;;;;;;28.00;26.00;;;;;11.50;65.02;102123.00;4968242;28;45731;-76
2021/11/08 09:53:45;;;;;;;;;33.33;27.67;;;;;11.56;64.60;102118.22;5039835;28;45453;-75
2021/11/08 09:56:13;;;;;;;;;30.67;25.67;;;;;11.64;64.38;102116.97;4974221;28;46917;-76
2021/11/08 09:58:38;;;;;;;;;23.00;14.67;;;;;11.70;64.29;102114.81;4969373;28;45427;-74
2021/11/08 10:01:08;;;;;;;;;30.33;25.33;;;;;11.78;64.11;102106.47;4994671;28;45663;-76
2021/11/08 10:03:34;;;;;;;;;36.00;25.00;;;;;11.86;63.73;102111.31;5000260;27;45340;-75
2021/11/08 10:06:01;;;;;;;;;33.00;28.00;;;;;11.92;63.53;102110.09;5029514;28;45482;-75
2021/11/08 10:08:30;;;;;;;;;38.00;31.33;;;;;11.99;63.58;102099.16;4957277;28;45621;-76
2021/11/08 10:10:59;;;;;;;;;26.33;23.33;;;;;12.08;63.21;102099.53;4971608;28;45473;-76
2021/11/08 10:13:31;;;;;;;;;36.33;27.00;;;;;12.13;63.05;102108.03;4969868;28;46196;-75
2021/11/08 10:16:09;;;;;;;;;24.00;21.00;;;;;12.17;63.09;102105.13;4989840;28;46218;-75
2021/11/08 10:18:36;;;;;;;;;24.00;20.00;;;;;12.21;62.35;102101.38;5011962;28;45392;-75
2021/11/08 10:21:04;;;;;;;;;19.00;14.33;;;;;12.27;61.25;102108.03;4976290;28;45566;-75
2021/11/08 10:23:30;;;;;;;;;16.33;13.00;;;;;12.31;60.51;102099.06;4989403;28;45492;-75
2021/11/08 10:25:55;;;;;;;;;15.00;12.00;;;;;12.37;60.06;102103.09;4976828;28;45491;-75
2021/11/08 10:28:26;;;;;;;;;12.00;7.00;;;;;12.45;59.77;102107.91;4968369;28;45487;-75
2021/11/08 10:30:58;;;;;;;;;6.67;5.67;;;;;12.51;59.67;102107.53;4985214;28;45363;-76
2021/11/08 10:33:30;;;;;;;;;12.00;9.67;;;;;12.55;59.11;102104.59;5015400;28;45518;-74
2021/11/08 10:36:01;;;;;;;;;94.25;66.75;;;;;12.63;59.14;102104.13;4956937;28;46370;-74
2021/11/08 10:38:30;;;;;;;;;12.67;6.00;;;;;12.67;58.26;102107.44;5037935;28;48261;-75
2021/11/08 10:41:18;;;;;;;;;25.33;19.67;;;;;12.69;57.87;102106.41;4971863;28;45326;-76
2021/11/08 10:43:48;;;;;;;;;15.33;12.67;;;;;12.73;57.64;102106.22;4961131;28;45595;-76
2021/11/08 10:46:21;;;;;;;;;13.33;10.33;;;;;12.77;57.53;102110.38;4961817;28;46210;-73
2021/11/08 10:48:49;;;;;;;;;24.33;17.67;;;;;12.83;57.23;102115.25;4960902;28;45432;-75
2021/11/08 10:51:18;;;;;;;;;10.67;6.00;;;;;12.87;57.08;102104.44;4966230;28;45356;-75
2021/11/08 10:53:47;;;;;;;;;12.33;10.33;;;;;12.95;57.04;102106.59;4956325;28;45498;-75
2021/11/08 10:56:14;;;;;;;;;9.00;7.67;;;;;13.00;56.84;102099.25;4969198;28;47293;-73
2021/11/08 10:58:47;;;;;;;;;21.33;16.67;;;;;13.06;56.95;102095.34;4960312;28;45510;-74
2021/11/08 11:01:30;;;;;;;;;13.33;9.33;;;;;13.15;56.42;102101.84;4968024;28;45300;-75
2021/11/08 11:03:58;;;;;;;;;12.67;7.00;;;;;13.26;56.05;102099.38;4987130;28;45503;-72
2021/11/08 11:06:38;;;;;;;;;54.75;41.25;;;;;13.34;56.56;102091.81;4972669;27;46731;-73
2021/11/08 11:09:14;;;;;;;;;10.67;8.00;;;;;13.45;55.29;102090.31;4959036;28;45439;-75
2021/11/08 11:11:41;;;;;;;;;12.33;7.33;;;;;13.47;55.09;102091.06;4989446;28;45432;-76
2021/11/08 11:14:07;;;;;;;;;20.33;11.00;;;;;13.50;54.96;102090.84;4967105;28;45499;-74
2021/11/08 11:16:53;;;;;;;;;7.00;6.00;;;;;13.51;54.08;102089.91;5019140;28;47004;-75
2021/11/08 11:19:19;;;;;;;;;11.67;8.33;;;;;13.51;54.57;102090.75;4980609;28;45441;-73
2021/11/08 11:22:01;;;;;;;;;10.00;8.67;;;;;13.51;54.50;102101.31;4971722;28;45368;-75
2021/11/08 11:24:46;;;;;;;;;5.67;5.00;;;;;13.48;53.38;102098.03;4973886;28;45534;-75
2021/11/08 11:27:23;;;;;;;;;6.00;3.00;;;;;13.41;53.16;102092.28;5023650;28;45901;-75
2021/11/08 11:29:49;;;;;;;;;8.33;6.00;;;;;13.38;53.34;102089.88;4958334;28;45493;-77
2021/11/08 11:32:27;;;;;;;;;8.33;4.67;;;;;13.33;53.21;102084.84;5036783;28;45400;-79
2021/11/08 11:34:56;;;;;;;;;4.33;2.00;;;;;13.29;52.56;102088.63;5021733;28;45570;-78
2021/11/08 11:37:24;;;;;;;;;10.33;7.00;;;;;13.23;53.31;102089.00;4984781;28;46269;-79
2021/11/08 11:40:09;;;;;;;;;121.50;95.00;;;;;13.19;53.64;102087.50;4982244;28;45597;-76
2021/11/08 11:42:49;;;;;;;;;18.00;13.33;;;;;13.18;53.38;102081.41;4969391;28;45450;-75
2021/11/08 11:45:15;;;;;;;;;15.00;11.33;;;;;13.17;53.01;102078.88;4956517;28;45420;-75
2021/11/08 11:47:41;;;;;;;;;13.00;5.67;;;;;13.17;53.15;102074.44;5037512;28;46320;-75
2021/11/08 11:50:08;;;;;;;;;10.33;5.00;;;;;13.16;53.06;102078.00;4975038;28;45357;-76
2021/11/08 11:52:41;;;;;;;;;8.00;6.00;;;;;13.19;53.14;102076.97;4981973;28;45404;-75
2021/11/08 11:55:07;;;;;;;;;8.33;8.00;;;;;13.19;52.98;102071.69;4994437;28;45521;-76
2021/11/08 11:57:33;;;;;;;;;7.00;4.67;;;;;13.20;52.72;102063.66;5007690;28;45502;-78
2021/11/08 11:59:58;;;;;;;;;8.67;5.67;;;;;13.24;53.02;102064.31;4965343;28;45384;-76
2021/11/08 12:02:25;;;;;;;;;7.00;4.00;;;;;13.29;52.55;102070.16;5035497;28;45355;-78
2021/11/08 12:04:50;;;;;;;;;4.33;4.33;;;;;13.36;52.25;102057.41;4972387;28;45493;-78
2021/11/08 12:07:16;;;;;;;;;2.33;2.33;;;;;13.40;52.00;102060.72;4963238;28;46189;-79
2021/11/08 12:09:41;;;;;;;;;5.33;4.00;;;;;13.39;52.00;102053.75;4963749;28;45263;-75
2021/11/08 12:12:07;;;;;;;;;4.67;3.67;;;;;13.42;52.06;102056.22;4975268;28;45571;-77
2021/11/08 12:14:36;;;;;;;;;7.50;6.00;;;;;13.47;52.50;102056.75;4958825;28;45537;-75
2021/11/08 12:17:13;;;;;;;;;5.33;4.00;;;;;13.52;52.87;102059.94;5029964;28;46171;-76
2021/11/08 12:19:41;;;;;;;;;10.67;4.00;;;;;13.53;52.62;102043.13;4964683;28;45415;-71
2021/11/08 12:22:15;;;;;;;;;5.67;4.33;;;;;13.49;52.20;102039.00;4969392;28;45351;-72
2021/11/08 12:24:42;;;;;;;;;9.00;5.00;;;;;13.45;53.17;102041.00;4971514;28;45295;-65
2021/11/08 12:27:10;;;;;;;;;19.33;11.67;;;;;13.51;52.58;102050.31;4958181;28;47363;-68
2021/11/08 12:29:51;;;;;;;;;10.00;5.67;;;;;13.50;51.98;102038.06;5039585;28;45764;-70
2021/11/08 12:32:17;;;;;;;;;3.67;2.33;;;;;13.43;52.05;102037.63;4971005;28;45443;-68
2021/11/08 12:34:47;;;;;;;;;10.67;6.67;;;;;13.35;51.66;102038.09;4961932;28;45637;-68
2021/11/08 12:37:14;;;;;;;;;5.67;3.67;;;;;13.38;51.93;102030.97;4962220;28;47067;-68
2021/11/08 12:39:41;;;;;;;;;7.33;4.00;;;;;13.41;51.66;102033.41;4964960;28;45437;-69
2021/11/08 12:42:12;;;;;;;;;7.67;5.00;;;;;13.38;51.52;102033.59;4973411;28;45578;-78
2021/11/08 12:44:44;;;;;;;;;8.33;3.00;;;;;13.38;50.93;102028.31;4975414;28;45565;-73
2021/11/08 12:47:12;;;;;;;;;9.33;4.33;;;;;13.47;50.72;102022.44;4987296;28;47662;-73
2021/11/08 12:49:51;;;;;;;;;8.67;6.67;;;;;13.62;51.10;102017.91;4983628;28;45338;-75
2021/11/08 12:52:24;;;;;;;;;7.67;4.33;;;;;13.82;50.64;102008.69;5007232;28;45406;-73
2021/11/08 12:55:14;;;;;;;;;3.33;3.33;;;;;14.02;50.29;102008.16;4998873;27;45657;-73
2021/11/08 12:57:55;;;;;;;;;6.67;3.33;;;;;14.17;49.52;102000.97;4971839;28;45641;-75
2021/11/08 13:00:27;;;;;;;;;4.67;4.67;;;;;14.27;49.24;102008.25;5011167;28;45605;-72
2021/11/08 13:02:56;;;;;;;;;8.67;4.67;;;;;14.29;47.98;102004.53;4976930;28;45551;-73
2021/11/08 13:05:34;;;;;;;;;6.00;4.00;;;;;14.30;47.56;101994.84;4976318;28;45433;-71
2021/11/08 13:08:00;;;;;;;;;8.00;6.00;;;;;14.32;48.44;102000.84;4959737;28;47106;-73
2021/11/08 13:10:33;;;;;;;;;6.67;3.67;;;;;14.36;48.74;101992.59;4971080;28;45398;-73
2021/11/08 13:13:00;;;;;;;;;18.67;8.67;;;;;14.42;49.18;101990.50;4992682;28;45810;-72